Kezdőlap
METAR-TAF:

METAR-TAF

Repülőterek :

Williamson County Regional Airport

Marion, Illinois, Amerikai Egyesült Államok

földrajzi szélesség: 37-45-01N, földrajzi hosszúság: 089-00-04W, magasság: 144 m

Jelenlegi meteorológiai megfigyelések

A jelentés 29 perccel ezelõtt készült, 09:15 UTC
Szélcsend
Hőmérséklet 21°C
Páratartalom 88%
Légköri nyomás 1018 hPa
Látótávolság: 16.1 km
Derült ég

METAR: KMWA 210915Z AUTO 00000KT 10SM CLR 21/19 A3007 RMK AO2 T02050190

Idő: 04:44 (09:44 UTC)


TAF: hiányzik

Meteorológiai megfigyelések és előrejelzések több, mint 4000 repülőtéren (METAR és TAF jelentéseket).

A térképen piros és sárga pontok jelzik az elérhető meteorológiai állomásokat.

Mozgassa az egeret a pont fölött, hogy megjelenjen az állomás neve.

Azután kattintson az időjárási megfigyelések és előrejelzések megtekintéséhez.

A térkép megváltoztatása: kattintson a fekete keresztel jelölt zöld gombra ráközelítéshez, a vonallal jelölt zöld gombra távolításhoz, vagy a zöld nyilakra a szomszédos térképek eléréséhez.


METAR-TAF: